Hovedside
METAR-TAF:

METAR-TAF

Lufthavner :

Svolvær lufthavn. Helle

Svolvær, Norge

breddegrad: 68-15N, lengdegrad: 014-40E, høyde over havet: 0 m

Gjeldene værobservasjon

Denne rapporten ble laget for 1 time og 56 minutter siden, klokken 09:50 UTC
Vind 9 kt fra Øst-sørøst
Temperatur 20°C
Luftfuktighet 56%
Trykk 1001 hPa
Sikt 10 km eller mer
ingen skyer under 1500 m og ingen bygeskyer

METAR: ENSH 030950Z 11009KT CAVOK 20/11 Q1001 RMK WIND 150FT 12004KT

Tid: 13:46 (11:46 UTC)

Varsel

Denne rapporten ble laget for 18 timer og 46 minutter siden, klokken 17:00 UTC
Varsel gyldig fra 02. klokken 18 UTC til 02. klokken 21 UTC
Vind 8 kt fra Øst-sørøst
Sikt 10 km eller mer
ingen skyer under 1500 m og ingen bygeskyer

TAF: ENSH 021700Z 0218/0221 11008KT CAVOK

Værobservasjoner og værvarsel for over 4000 flyplasser (METAR- og TAF-rapporter).

Tilgjengelige stasjoner er representert av de røde og gule prikkene på kartet.

Hold musepekeren over prikken for å se navnet på stasjonen.

Klikk så for å se værobservasjoner og -varsler.

For å forandre kartet kan du klikke på den grønne knappen med svart kryss for å zoome inn, på den grønne knappen med strek for å zoome ut, eller på de grønne pilene for å se tilstøtende kart.


METAR-TAF: